createdAt,value
2022-09-06T00:00:10.071Z,70
2022-09-06T00:15:02.185Z,70
2022-09-06T00:30:05.690Z,69
2022-09-06T00:45:03.379Z,69
2022-09-06T01:00:05.563Z,69
2022-09-06T01:15:03.972Z,69
2022-09-06T01:30:04.883Z,69
2022-09-06T01:45:02.412Z,69
2022-09-06T02:00:08.981Z,69
2022-09-06T02:15:04.721Z,69
2022-09-06T02:30:06.036Z,69
2022-09-06T02:45:04.715Z,68
2022-09-06T03:00:04.659Z,68
2022-09-06T03:15:04.566Z,68
2022-09-06T03:30:04.099Z,68
2022-09-06T03:45:03.906Z,68
2022-09-06T04:00:04.588Z,67
2022-09-06T04:15:03.627Z,67
2022-09-06T04:30:05.269Z,67
2022-09-06T04:45:05.210Z,67
2022-09-06T05:00:08.304Z,67
2022-09-06T05:15:05.413Z,67
2022-09-06T05:30:06.382Z,67
2022-09-06T05:45:02.553Z,68
2022-09-06T06:00:05.519Z,68
2022-09-06T06:15:02.434Z,69
2022-09-06T06:30:07.539Z,69
2022-09-06T06:45:03.813Z,70
2022-09-06T07:00:09.047Z,70
2022-09-06T07:15:04.188Z,70
2022-09-06T07:30:07.200Z,71
2022-09-06T07:45:03.489Z,71
2022-09-06T08:00:08.384Z,71
2022-09-06T08:15:03.412Z,71
2022-09-06T08:30:07.138Z,71
2022-09-06T08:45:05.956Z,72
2022-09-06T09:00:06.966Z,72
2022-09-06T09:15:03.587Z,72
2022-09-06T09:45:03.460Z,71
2022-09-06T10:00:07.936Z,71
2022-09-06T10:15:07.473Z,71
2022-09-06T10:30:06.603Z,70
2022-09-06T10:45:03.165Z,70
2022-09-06T11:00:05.212Z,71
2022-09-06T11:15:04.411Z,71
2022-09-06T11:30:06.769Z,70
2022-09-06T11:45:03.547Z,70
2022-09-06T12:00:07.551Z,70
2022-09-06T12:15:04.992Z,70
2022-09-06T12:30:06.302Z,71
2022-09-06T12:45:03.542Z,71
2022-09-06T13:00:10.303Z,71
2022-09-06T13:15:03.714Z,70
2022-09-06T13:30:05.502Z,70
2022-09-06T13:45:03.792Z,70
2022-09-06T14:00:12.303Z,70
2022-09-06T14:15:05.475Z,70
2022-09-06T14:30:08.385Z,70
2022-09-06T14:45:02.482Z,70
2022-09-06T15:00:06.263Z,70
2022-09-06T15:15:03.389Z,70
2022-09-06T15:30:05.761Z,70
2022-09-06T15:45:03.557Z,70
2022-09-06T16:00:06.706Z,70
2022-09-06T16:15:03.060Z,70
2022-09-06T16:30:08.701Z,70
2022-09-06T16:45:04.926Z,71
2022-09-06T17:00:06.655Z,72
2022-09-06T17:15:03.542Z,72
2022-09-06T17:30:08.137Z,72
2022-09-06T17:45:04.467Z,73
2022-09-06T18:00:08.722Z,73
2022-09-06T18:15:05.226Z,74
2022-09-06T18:30:05.388Z,74
2022-09-06T18:45:04.382Z,74
2022-09-06T19:00:05.526Z,75
2022-09-06T19:15:05.591Z,75
2022-09-06T19:30:06.685Z,76
2022-09-06T19:45:05.460Z,76
2022-09-06T20:00:05.907Z,76
2022-09-06T20:15:02.472Z,76
2022-09-06T20:30:08.578Z,77
2022-09-06T20:45:02.194Z,77
2022-09-06T21:00:14.446Z,77
2022-09-06T21:15:04.112Z,77
2022-09-06T21:30:04.514Z,77
2022-09-06T21:45:02.883Z,77
2022-09-06T22:00:07.789Z,77
2022-09-06T22:15:04.171Z,77
2022-09-06T22:30:04.924Z,77
2022-09-06T22:45:04.694Z,77
2022-09-06T23:00:07.914Z,77
2022-09-06T23:15:04.962Z,76
2022-09-06T23:30:04.699Z,76
2022-09-06T23:45:03.021Z,76
